Time,TemperatureF,DewpointF,PressureIn,WindDirection,WindDirectionDegrees,WindSpeedMPH,WindSpeedGustMPH,Humidity,HourlyPrecipIn,Conditions,Clouds,dailyrainin,SolarRadiationWatts/m^2,SoftwareType,DateUTC
2013-10-29 00:02:00,44.7,42.8,29.41,West,259,23.0,23.0,93,0.00,RA,,0.00,0.0,WeatherDisplay:10.37,2013-10-29 08:02:00,
2013-10-29 00:07:00,44.7,42.5,29.41,SSW,210,16.1,16.1,92,0.00,RA,,0.00,0.0,WeatherDisplay:10.37,2013-10-29 08:07:00,
2013-10-29 00:12:00,44.7,42.5,29.42,SSW,204,13.8,13.8,92,0.00,CLR,,0.00,0.0,WeatherDisplay:10.37,2013-10-29 08:12:00,
2013-10-29 00:17:00,44.7,42.5,29.42,SSW,206,15.0,15.0,92,0.00,CLR,,0.00,0.0,WeatherDisplay:10.37,2013-10-29 08:17:00,
2013-10-29 00:22:00,44.7,42.2,29.42,SSE,162,15.0,15.0,91,0.00,CLR,,0.00,0.0,WeatherDisplay:10.37,2013-10-29 08:22:00,
2013-10-29 00:27:00,44.7,42.2,29.43,SSE,149,11.5,11.5,91,0.00,CLR,,0.00,0.0,WeatherDisplay:10.37,2013-10-29 08:27:00,
2013-10-29 00:32:00,44.6,42.1,29.43,WSW,238,11.5,11.5,91,0.00,CLR,,0.00,0.0,WeatherDisplay:10.37,2013-10-29 08:32:00,
2013-10-29 00:37:00,44.6,42.1,29.43,South,185,13.8,13.8,91,0.00,CLR,,0.00,0.0,WeatherDisplay:10.37,2013-10-29 08:37:00,
2013-10-29 00:42:00,44.6,42.1,29.43,SSW,200,18.4,18.4,91,0.00,CLR,,0.00,0.0,WeatherDisplay:10.37,2013-10-29 08:42:00,
2013-10-29 00:47:00,44.5,42.0,29.43,South,185,15.0,15.0,91,0.00,CLR,,0.00,0.0,WeatherDisplay:10.37,2013-10-29 08:47:00,
2013-10-29 00:52:00,44.5,42.0,29.44,WSW,243,16.1,16.1,91,0.00,CLR,,0.00,0.0,WeatherDisplay:10.37,2013-10-29 08:52:00,
2013-10-29 00:57:00,44.4,41.7,29.44,South,188,13.8,13.8,90,0.00,CLR,,0.00,0.0,WeatherDisplay:10.37,2013-10-29 08:57:00,
2013-10-29 01:02:00,44.4,41.7,29.44,SSW,198,18.4,18.4,90,0.00,CLR,,0.00,0.0,WeatherDisplay:10.37,2013-10-29 09:02:00,
2013-10-29 01:07:00,44.3,41.6,29.45,SSW,192,11.5,11.5,90,0.00,CLR,,0.00,0.0,WeatherDisplay:10.37,2013-10-29 09:07:00,
2013-10-29 01:12:00,44.3,41.8,29.45,SW,219,10.4,10.4,91,0.00,CLR,,0.00,0.0,WeatherDisplay:10.37,2013-10-29 09:12:00,
2013-10-29 01:17:00,44.2,41.5,29.45,SW,220,12.7,12.7,90,0.00,CLR,,0.00,0.0,WeatherDisplay:10.37,2013-10-29 09:17:00,
2013-10-29 01:22:00,44.1,41.4,29.46,SW,223,11.5,11.5,90,0.00,CLR,,0.00,0.0,WeatherDisplay:10.37,2013-10-29 09:22:00,
2013-10-29 01:27:00,44.2,41.5,29.46,South,178,13.0,13.0,90,0.00,CLR,,0.00,0.0,WeatherDisplay:10.37,2013-10-29 09:27:00,
2013-10-29 01:32:00,44.2,41.5,29.46,SSE,157,9.2,9.2,90,0.00,CLR,,0.00,0.0,WeatherDisplay:10.37,2013-10-29 09:32:00,
2013-10-29 01:37:00,44.0,41.5,29.46,SW,216,8.1,8.1,91,0.00,CLR,,0.00,0.0,WeatherDisplay:10.37,2013-10-29 09:37:00,
2013-10-29 01:42:00,43.8,41.3,29.46,SW,219,11.5,11.5,91,0.00,CLR,,0.00,0.0,WeatherDisplay:10.37,2013-10-29 09:42:00,
2013-10-29 01:47:00,43.8,41.3,29.46,SW,222,7.0,7.0,91,0.00,CLR,,0.00,0.0,WeatherDisplay:10.37,2013-10-29 09:47:00,
2013-10-29 01:52:00,43.7,41.2,29.46,SW,218,9.2,9.2,91,0.00,CLR,,0.00,0.0,WeatherDisplay:10.37,2013-10-29 09:52:00,
2013-10-29 01:57:00,43.9,41.4,29.47,SSE,166,12.0,12.0,91,0.00,CLR,,0.00,0.0,WeatherDisplay:10.37,2013-10-29 09:57:00,
2013-10-29 02:02:00,43.9,41.4,29.47,SSW,194,11.5,11.5,91,0.00,CLR,,0.00,0.0,WeatherDisplay:10.37,2013-10-29 10:02:00,
2013-10-29 02:07:00,43.8,41.3,29.47,South,169,11.5,11.5,91,0.00,CLR,,0.00,0.0,WeatherDisplay:10.37,2013-10-29 10:07:00,
2013-10-29 02:12:00,43.6,41.1,29.47,South,170,12.7,12.7,91,0.00,CLR,,0.00,0.0,WeatherDisplay:10.37,2013-10-29 10:12:00,
2013-10-29 02:17:00,43.5,41.0,29.47,SSW,210,14.0,14.0,91,0.00,CLR,,0.00,0.0,WeatherDisplay:10.37,2013-10-29 10:17:00,
2013-10-29 02:22:00,43.4,40.9,29.47,SSW,198,10.4,10.4,91,0.00,CLR,,0.00,0.0,WeatherDisplay:10.37,2013-10-29 10:22:00,
2013-10-29 02:27:00,43.6,41.1,29.47,South,171,15.0,15.0,91,0.00,CLR,,0.00,0.0,WeatherDisplay:10.37,2013-10-29 10:27:00,
2013-10-29 02:32:00,43.7,41.5,29.47,South,170,11.5,11.5,92,0.00,CLR,,0.00,0.0,WeatherDisplay:10.37,2013-10-29 10:32:00,
2013-10-29 02:37:00,43.6,41.1,29.47,SW,235,9.0,9.0,91,0.00,CLR,,0.00,0.0,WeatherDisplay:10.37,2013-10-29 10:37:00,
2013-10-29 02:42:00,43.6,41.1,29.47,South,189,9.2,9.2,91,0.00,CLR,,0.00,0.0,WeatherDisplay:10.37,2013-10-29 10:42:00,
2013-10-29 02:47:00,43.5,41.3,29.47,South,178,9.0,9.0,92,0.00,CLR,,0.00,0.0,WeatherDisplay:10.37,2013-10-29 10:47:00,
2013-10-29 02:52:00,43.4,41.2,29.48,WSW,244,10.4,10.4,92,0.00,CLR,,0.00,0.0,WeatherDisplay:10.37,2013-10-29 10:52:00,
2013-10-29 02:57:00,43.4,41.2,29.48,SW,223,9.2,9.2,92,0.00,CLR,,0.00,0.0,WeatherDisplay:10.37,2013-10-29 10:57:00,
2013-10-29 03:02:00,43.5,41.3,29.48,South,186,11.5,11.5,92,0.00,CLR,,0.00,0.0,WeatherDisplay:10.37,2013-10-29 11:02:00,
2013-10-29 03:07:00,43.7,41.2,29.48,SW,229,15.0,15.0,91,0.00,CLR,,0.00,0.0,WeatherDisplay:10.37,2013-10-29 11:07:00,
2013-10-29 03:12:00,43.9,41.4,29.48,SW,231,16.0,16.0,91,0.00,CLR,,0.00,0.0,WeatherDisplay:10.37,2013-10-29 11:12:00,
2013-10-29 03:17:00,44.0,41.5,29.48,WSW,240,9.2,9.2,91,0.00,CLR,,0.00,0.0,WeatherDisplay:10.37,2013-10-29 11:17:00,
2013-10-29 03:22:00,44.0,41.5,29.48,South,179,9.2,9.2,91,0.00,CLR,,0.00,0.0,WeatherDisplay:10.37,2013-10-29 11:22:00,
2013-10-29 03:27:00,43.8,41.3,29.48,WSW,242,7.0,7.0,91,0.00,CLR,,0.00,0.0,WeatherDisplay:10.37,2013-10-29 11:27:00,
2013-10-29 03:32:00,43.5,40.8,29.48,SSW,198,12.7,12.7,90,0.00,CLR,,0.00,0.0,WeatherDisplay:10.37,2013-10-29 11:32:00,
2013-10-29 03:37:00,43.2,40.5,29.49,South,175,8.1,8.1,90,0.00,CLR,,0.00,0.0,WeatherDisplay:10.37,2013-10-29 11:37:00,
2013-10-29 03:42:00,42.9,40.2,29.48,SSE,165,7.0,7.0,90,0.00,CLR,,0.00,0.0,WeatherDisplay:10.37,2013-10-29 11:42:00,
2013-10-29 03:47:00,42.8,40.4,29.49,SSW,199,9.2,9.2,91,0.00,CLR,,0.00,0.0,WeatherDisplay:10.37,2013-10-29 11:47:00,
2013-10-29 03:52:00,42.8,40.4,29.48,South,182,17.3,17.3,91,0.00,CLR,,0.00,0.0,WeatherDisplay:10.37,2013-10-29 11:52:00,
2013-10-29 03:57:00,42.9,40.5,29.49,South,180,9.2,9.2,91,0.00,CLR,,0.00,0.0,WeatherDisplay:10.37,2013-10-29 11:57:00,
2013-10-29 04:03:00,42.8,40.4,29.49,South,174,13.0,13.0,91,0.00,CLR,,0.00,0.0,WeatherDisplay:10.37,2013-10-29 12:03:00,
2013-10-29 04:08:00,42.8,40.4,29.49,South,171,11.5,11.5,91,0.00,CLR,,0.00,0.0,WeatherDisplay:10.37,2013-10-29 12:08:00,
2013-10-29 04:13:00,42.9,40.5,29.49,WSW,244,11.5,11.5,91,0.00,CLR,,0.00,0.0,WeatherDisplay:10.37,2013-10-29 12:13:00,
2013-10-29 04:18:00,43.0,40.6,29.49,West,265,9.2,9.2,91,0.00,CLR,,0.00,0.0,WeatherDisplay:10.37,2013-10-29 12:18:00,
2013-10-29 04:23:00,43.2,40.8,29.49,SSW,205,11.5,11.5,91,0.00,CLR,,0.00,0.0,WeatherDisplay:10.37,2013-10-29 12:23:00,
2013-10-29 04:28:00,43.4,40.9,29.48,SSW,195,13.8,13.8,91,0.00,CLR,,0.00,0.0,WeatherDisplay:10.37,2013-10-29 12:28:00,
2013-10-29 04:33:00,43.4,40.9,29.49,WSW,241,10.4,10.4,91,0.00,CLR,,0.00,0.0,WeatherDisplay:10.37,2013-10-29 12:33:00,
2013-10-29 04:38:00,43.4,40.9,29.49,South,190,11.5,11.5,91,0.00,CLR,,0.00,0.0,WeatherDisplay:10.37,2013-10-29 12:38:00,
2013-10-29 04:43:00,43.4,40.9,29.49,South,174,11.5,11.5,91,0.00,CLR,,0.00,0.0,WeatherDisplay:10.37,2013-10-29 12:43:00,
2013-10-29 04:48:00,43.4,40.9,29.49,SW,235,11.5,11.5,91,0.00,CLR,,0.00,0.0,WeatherDisplay:10.37,2013-10-29 12:48:00,
2013-10-29 04:53:00,43.4,40.7,29.49,SE,146,10.4,10.4,90,0.00,CLR,,0.00,0.0,WeatherDisplay:10.37,2013-10-29 12:53:00,
2013-10-29 04:58:00,43.3,40.3,29.50,SSW,202,11.5,11.5,89,0.00,CLR,,0.00,0.0,WeatherDisplay:10.37,2013-10-29 12:58:00,
2013-10-29 05:03:00,42.9,39.9,29.50,South,171,11.5,11.5,89,0.00,CLR,,0.00,0.0,WeatherDisplay:10.37,2013-10-29 13:03:00,
2013-10-29 05:08:00,42.9,39.9,29.50,SSW,211,11.5,11.5,89,0.00,CLR,,0.00,0.0,WeatherDisplay:10.37,2013-10-29 13:08:00,
2013-10-29 05:13:00,42.9,40.2,29.50,SSW,196,8.1,8.1,90,0.00,CLR,,0.00,0.0,WeatherDisplay:10.37,2013-10-29 13:13:00,
2013-10-29 05:18:00,42.9,39.9,29.50,SSE,166,8.1,8.1,89,0.00,CLR,,0.00,0.0,WeatherDisplay:10.37,2013-10-29 13:18:00,
2013-10-29 05:23:00,42.8,39.8,29.50,SSW,211,8.1,8.1,89,0.00,CLR,,0.00,0.0,WeatherDisplay:10.37,2013-10-29 13:23:00,
2013-10-29 05:28:00,42.7,39.7,29.50,SSW,211,17.3,17.3,89,0.00,CLR,,0.00,0.0,WeatherDisplay:10.37,2013-10-29 13:28:00,
2013-10-29 05:33:00,42.8,39.8,29.50,SSE,159,13.8,13.8,89,0.00,CLR,,0.00,0.0,WeatherDisplay:10.37,2013-10-29 13:33:00,
2013-10-29 05:38:00,43.0,40.0,29.51,SSW,197,6.9,6.9,89,0.00,CLR,,0.00,0.0,WeatherDisplay:10.37,2013-10-29 13:38:00,
2013-10-29 05:43:00,43.0,40.0,29.50,SW,215,13.8,13.8,89,0.01,RA,,0.01,0.0,WeatherDisplay:10.37,2013-10-29 13:43:00,
2013-10-29 05:48:00,43.0,40.3,29.51,South,181,4.6,4.6,90,0.01,RA,,0.01,0.0,WeatherDisplay:10.37,2013-10-29 13:48:00,
2013-10-29 05:53:00,42.8,39.8,29.50,South,178,8.0,8.0,89,0.01,CLR,,0.01,0.0,WeatherDisplay:10.37,2013-10-29 13:53:00,
2013-10-29 05:58:00,42.5,39.5,29.50,SW,217,8.1,8.1,89,0.01,CLR,,0.01,0.0,WeatherDisplay:10.37,2013-10-29 13:58:00,
2013-10-29 06:03:00,42.3,39.3,29.50,SSE,167,11.0,11.0,89,0.01,CLR,,0.01,0.0,WeatherDisplay:10.37,2013-10-29 14:03:00,
2013-10-29 06:08:00,42.3,39.6,29.51,SSE,161,10.4,10.4,90,0.01,CLR,,0.01,0.0,WeatherDisplay:10.37,2013-10-29 14:08:00,
2013-10-29 06:13:00,42.2,38.9,29.51,SSW,195,11.5,11.5,88,0.01,CLR,,0.01,0.0,WeatherDisplay:10.37,2013-10-29 14:13:00,
2013-10-29 06:18:00,42.0,38.7,29.51,SSE,155,13.8,13.8,88,0.01,CLR,,0.01,0.0,WeatherDisplay:10.37,2013-10-29 14:18:00,
2013-10-29 06:23:00,42.0,39.0,29.51,SSW,193,8.1,8.1,89,0.01,CLR,,0.01,0.0,WeatherDisplay:10.37,2013-10-29 14:23:00,
2013-10-29 06:28:00,42.0,39.0,29.51,South,182,11.5,11.5,89,0.01,CLR,,0.01,0.0,WeatherDisplay:10.37,2013-10-29 14:28:00,
2013-10-29 06:33:00,41.9,38.9,29.51,SSW,204,15.0,15.0,89,0.01,CLR,,0.01,0.0,WeatherDisplay:10.37,2013-10-29 14:33:00,
2013-10-29 06:38:00,42.0,39.0,29.51,South,173,12.7,12.7,89,0.01,CLR,,0.01,0.0,WeatherDisplay:10.37,2013-10-29 14:38:00,
2013-10-29 06:43:00,42.1,39.1,29.51,South,177,11.5,11.5,89,0.00,CLR,,0.01,0.0,WeatherDisplay:10.37,2013-10-29 14:43:00,
2013-10-29 06:48:00,42.2,39.2,29.51,SW,229,10.4,10.4,89,0.00,CLR,,0.01,0.0,WeatherDisplay:10.37,2013-10-29 14:48:00,
2013-10-29 06:53:00,42.2,38.9,29.51,SW,216,11.5,11.5,88,0.00,CLR,,0.01,0.0,WeatherDisplay:10.37,2013-10-29 14:53:00,
2013-10-29 06:58:00,42.2,38.9,29.52,SSW,195,12.7,12.7,88,0.00,CLR,,0.01,0.0,WeatherDisplay:10.37,2013-10-29 14:58:00,
2013-10-29 07:03:00,42.2,38.9,29.52,South,185,10.4,10.4,88,0.00,CLR,,0.01,0.0,WeatherDisplay:10.37,2013-10-29 15:03:00,
2013-10-29 07:08:00,42.3,39.3,29.52,SSW,194,4.6,4.6,89,0.00,CLR,,0.01,0.0,WeatherDisplay:10.37,2013-10-29 15:08:00,
2013-10-29 07:13:00,42.2,39.2,29.52,South,172,7.0,7.0,89,0.00,CLR,,0.01,0.0,WeatherDisplay:10.37,2013-10-29 15:13:00,
2013-10-29 07:18:00,42.0,38.7,29.52,SE,142,6.0,6.0,88,0.00,CLR,,0.01,0.0,WeatherDisplay:10.37,2013-10-29 15:18:00,
2013-10-29 07:23:00,41.9,38.6,29.52,South,184,9.2,9.2,88,0.00,CLR,,0.01,0.0,WeatherDisplay:10.37,2013-10-29 15:23:00,
2013-10-29 07:28:00,41.7,38.7,29.53,SSE,167,9.0,9.0,89,0.00,CLR,,0.01,0.0,WeatherDisplay:10.37,2013-10-29 15:28:00,
2013-10-29 07:33:00,41.6,38.6,29.52,South,182,5.8,5.8,89,0.00,CLR,,0.01,0.0,WeatherDisplay:10.37,2013-10-29 15:33:00,
2013-10-29 07:38:00,41.6,38.3,29.53,SSW,210,11.5,11.5,88,0.00,CLR,,0.01,0.0,WeatherDisplay:10.37,2013-10-29 15:38:00,
2013-10-29 07:43:00,41.4,38.1,29.53,South,177,11.5,11.5,88,0.00,CLR,,0.01,0.0,WeatherDisplay:10.37,2013-10-29 15:43:00,
2013-10-29 07:48:00,41.2,37.9,29.52,South,182,8.1,8.1,88,0.00,CLR,,0.01,0.0,WeatherDisplay:10.37,2013-10-29 15:48:00,
2013-10-29 07:53:00,41.1,37.8,29.53,SSW,206,9.2,9.2,88,0.00,CLR,,0.01,0.0,WeatherDisplay:10.37,2013-10-29 15:53:00,
2013-10-29 07:58:00,40.9,37.6,29.53,SSW,201,8.1,8.1,88,0.00,CLR,,0.01,0.0,WeatherDisplay:10.37,2013-10-29 15:58:00,
2013-10-29 08:03:00,40.8,37.5,29.53,SSE,155,6.9,6.9,88,0.00,CLR,,0.01,0.0,WeatherDisplay:10.37,2013-10-29 16:03:00,
2013-10-29 08:08:00,40.9,37.9,29.53,SSE,162,8.1,8.1,89,0.00,CLR,,0.01,0.0,WeatherDisplay:10.37,2013-10-29 16:08:00,
2013-10-29 08:13:00,40.8,37.5,29.53,South,179,5.8,5.8,88,0.00,CLR,,0.01,0.0,WeatherDisplay:10.37,2013-10-29 16:13:00,
2013-10-29 08:18:00,40.6,37.6,29.53,South,173,4.6,4.6,89,0.00,CLR,,0.01,0.0,WeatherDisplay:10.37,2013-10-29 16:18:00,
2013-10-29 08:23:00,40.5,37.5,29.53,South,191,9.2,9.2,89,0.00,CLR,,0.01,0.0,WeatherDisplay:10.37,2013-10-29 16:23:00,
2013-10-29 08:28:00,40.5,37.5,29.53,SSW,194,8.1,8.1,89,0.00,CLR,,0.01,0.0,WeatherDisplay:10.37,2013-10-29 16:28:00,
2013-10-29 08:33:00,40.4,37.4,29.53,SSW,194,6.9,6.9,89,0.00,CLR,,0.01,0.0,WeatherDisplay:10.37,2013-10-29 16:33:00,
2013-10-29 08:38:00,40.4,37.7,29.53,South,189,4.6,4.6,90,0.00,CLR,,0.01,0.0,WeatherDisplay:10.37,2013-10-29 16:38:00,
2013-10-29 08:43:00,40.3,37.6,29.53,SSW,193,5.8,5.8,90,0.00,CLR,,0.01,0.0,WeatherDisplay:10.37,2013-10-29 16:43:00,
2013-10-29 08:48:00,40.3,37.6,29.53,SSW,200,7.0,7.0,90,0.00,CLR,,0.01,0.0,WeatherDisplay:10.37,2013-10-29 16:48:00,
2013-10-29 08:53:00,40.3,37.6,29.53,SSE,163,5.0,5.0,90,0.00,CLR,,0.01,0.0,WeatherDisplay:10.37,2013-10-29 16:53:00,
2013-10-29 08:58:00,40.5,37.8,29.53,SSW,209,6.9,6.9,90,0.00,CLR,,0.01,0.0,WeatherDisplay:10.37,2013-10-29 16:58:00,
2013-10-29 09:03:00,40.5,37.8,29.53,SSE,150,4.6,4.6,90,0.00,CLR,,0.01,0.0,WeatherDisplay:10.37,2013-10-29 17:03:00,
2013-10-29 09:08:00,40.4,37.7,29.53,South,188,3.5,4.0,90,0.00,CLR,,0.01,0.0,WeatherDisplay:10.37,2013-10-29 17:08:00,
2013-10-29 09:13:00,40.5,37.8,29.53,SW,223,6.9,6.9,90,0.00,CLR,,0.01,0.0,WeatherDisplay:10.37,2013-10-29 17:13:00,
2013-10-29 09:18:00,40.4,37.7,29.53,South,185,8.1,8.1,90,0.00,CLR,,0.01,0.0,WeatherDisplay:10.37,2013-10-29 17:18:00,
2013-10-29 09:23:00,40.4,37.7,29.53,SW,219,6.0,6.0,90,0.00,CLR,,0.01,5.0,WeatherDisplay:10.37,2013-10-29 17:23:00,
2013-10-29 09:28:00,40.4,38.0,29.53,South,182,6.9,6.9,91,0.00,CLR,,0.01,5.0,WeatherDisplay:10.37,2013-10-29 17:28:00,
2013-10-29 09:33:00,40.6,38.2,29.53,SW,234,11.5,11.5,91,0.00,CLR,,0.01,7.0,WeatherDisplay:10.37,2013-10-29 17:33:00,
2013-10-29 09:38:00,40.6,38.2,29.53,SW,227,6.9,6.9,91,0.00,CLR,,0.01,7.0,WeatherDisplay:10.37,2013-10-29 17:38:00,
2013-10-29 09:43:00,40.6,38.2,29.53,SSW,210,8.0,8.0,91,0.00,CLR,,0.01,9.0,WeatherDisplay:10.37,2013-10-29 17:43:00,
2013-10-29 09:48:00,40.5,38.1,29.53,South,184,6.0,6.0,91,0.00,CLR,,0.01,11.0,WeatherDisplay:10.37,2013-10-29 17:48:00,
2013-10-29 09:53:00,40.5,38.4,29.53,SSE,163,5.0,5.0,92,0.00,CLR,,0.01,12.0,WeatherDisplay:10.37,2013-10-29 17:53:00,
2013-10-29 09:58:00,40.5,38.6,29.54,South,169,8.0,8.0,93,0.00,CLR,,0.01,16.0,WeatherDisplay:10.37,2013-10-29 17:58:00,
2013-10-29 10:03:00,40.8,38.9,29.54,East,99,5.8,5.8,93,0.00,CLR,,0.01,19.0,WeatherDisplay:10.37,2013-10-29 18:03:00,
2013-10-29 10:08:00,41.0,39.1,29.55,SSE,161,4.6,4.6,93,0.00,CLR,,0.01,23.0,WeatherDisplay:10.37,2013-10-29 18:08:00,
2013-10-29 10:13:00,41.1,39.2,29.54,SSW,200,3.5,3.5,93,0.00,CLR,,0.01,25.0,WeatherDisplay:10.37,2013-10-29 18:13:00,
2013-10-29 10:18:00,41.1,39.2,29.55,SSE,152,7.0,7.0,93,0.00,CLR,,0.01,26.0,WeatherDisplay:10.37,2013-10-29 18:18:00,
2013-10-29 10:23:00,41.1,39.2,29.55,South,186,6.9,6.9,93,0.00,CLR,,0.01,28.0,WeatherDisplay:10.37,2013-10-29 18:23:00,
2013-10-29 10:28:00,41.1,39.0,29.55,SSE,166,3.5,3.5,92,0.00,CLR,,0.01,33.0,WeatherDisplay:10.37,2013-10-29 18:28:00,
2013-10-29 10:33:00,41.0,38.9,29.55,SSW,203,3.5,3.5,92,0.00,CLR,,0.01,39.0,WeatherDisplay:10.37,2013-10-29 18:33:00,
2013-10-29 10:38:00,40.9,38.8,29.56,SE,138,3.5,3.5,92,0.00,CLR,,0.01,42.0,WeatherDisplay:10.37,2013-10-29 18:38:00,
2013-10-29 10:43:00,40.7,38.3,29.55,South,169,3.5,3.5,91,0.00,CLR,,0.01,47.0,WeatherDisplay:10.37,2013-10-29 18:43:00,
2013-10-29 10:48:00,40.5,38.1,29.55,South,169,0.0,0.0,91,0.00,CLR,,0.01,56.0,WeatherDisplay:10.37,2013-10-29 18:48:00,
2013-10-29 10:53:00,40.3,37.9,29.55,South,169,1.2,1.2,91,0.00,CLR,,0.01,70.0,WeatherDisplay:10.37,2013-10-29 18:53:00,
2013-10-29 10:58:00,40.2,37.8,29.56,South,169,0.0,0.0,91,0.00,CLR,,0.01,69.0,WeatherDisplay:10.37,2013-10-29 18:58:00,
2013-10-29 11:03:00,40.3,37.9,29.55,South,169,3.0,3.0,91,0.00,CLR,,0.01,79.0,WeatherDisplay:10.37,2013-10-29 19:03:00,
2013-10-29 11:08:00,40.4,38.0,29.56,South,169,2.0,2.0,91,0.00,CLR,,0.01,134.0,WeatherDisplay:10.37,2013-10-29 19:08:00,
2013-10-29 11:13:00,40.8,38.4,29.55,SSE,161,3.5,3.5,91,0.00,CLR,,0.01,63.0,WeatherDisplay:10.37,2013-10-29 19:13:00,
2013-10-29 11:18:00,41.1,38.4,29.55,SE,146,4.6,4.6,90,0.00,CLR,,0.01,42.0,WeatherDisplay:10.37,2013-10-29 19:18:00,
2013-10-29 11:23:00,41.4,38.7,29.55,SSW,203,5.0,5.0,90,0.00,CLR,,0.01,62.0,WeatherDisplay:10.37,2013-10-29 19:23:00,
2013-10-29 11:28:00,41.6,38.6,29.55,SSW,198,1.2,1.2,89,0.00,CLR,,0.01,42.0,WeatherDisplay:10.37,2013-10-29 19:28:00,
2013-10-29 11:33:00,41.9,38.9,29.55,SSW,196,3.5,3.5,89,0.00,CLR,,0.01,37.0,WeatherDisplay:10.37,2013-10-29 19:33:00,
2013-10-29 11:38:00,42.1,39.1,29.55,SSW,210,3.5,3.5,89,0.00,CLR,,0.01,47.0,WeatherDisplay:10.37,2013-10-29 19:38:00,
2013-10-29 11:43:00,42.2,38.9,29.55,SSW,201,4.6,0.0,88,0.00,CLR,,0.01,54.0,WeatherDisplay:10.37,2013-10-29 19:43:00,
2013-10-29 11:48:00,42.4,38.8,29.55,South,180,3.5,3.5,87,0.00,CLR,,0.01,30.0,WeatherDisplay:10.37,2013-10-29 19:48:00,
2013-10-29 11:53:00,42.5,38.9,29.55,SSE,156,3.5,3.5,87,0.00,CLR,,0.01,30.0,WeatherDisplay:10.37,2013-10-29 19:53:00,
2013-10-29 11:58:00,42.5,38.9,29.55,SE,140,3.0,3.0,87,0.00,CLR,,0.01,54.0,WeatherDisplay:10.37,2013-10-29 19:58:00,
2013-10-29 12:03:00,42.6,39.0,29.56,South,188,1.2,1.2,87,0.00,CLR,,0.01,47.0,WeatherDisplay:10.37,2013-10-29 20:03:00,
2013-10-29 12:08:00,42.8,39.2,29.55,SSE,154,3.5,3.5,87,0.00,CLR,,0.01,84.0,WeatherDisplay:10.37,2013-10-29 20:08:00,
2013-10-29 12:13:00,43.2,39.6,29.55,SSE,154,0.0,0.0,87,0.00,CLR,,0.01,204.0,WeatherDisplay:10.37,2013-10-29 20:13:00,
2013-10-29 12:19:00,43.7,39.8,29.55,SSE,154,1.2,1.2,86,0.00,CLR,,0.01,207.0,WeatherDisplay:10.37,2013-10-29 20:19:00,
2013-10-29 12:24:00,44.3,40.1,29.55,SSW,196,4.6,4.6,85,0.00,CLR,,0.01,213.0,WeatherDisplay:10.37,2013-10-29 20:24:00,
2013-10-29 12:29:00,45.0,40.5,29.55,SSW,200,3.5,3.5,84,0.00,CLR,,0.01,216.0,WeatherDisplay:10.37,2013-10-29 20:29:00,
2013-10-29 12:34:00,45.6,40.4,29.55,SSE,153,4.6,4.6,82,0.00,CLR,,0.01,220.0,WeatherDisplay:10.37,2013-10-29 20:34:00,
2013-10-29 12:39:00,46.0,40.5,29.55,SSE,153,2.3,0.0,81,0.00,CLR,,0.01,223.0,WeatherDisplay:10.37,2013-10-29 20:39:00,
2013-10-29 12:44:00,46.5,40.7,29.56,SSE,153,2.3,2.3,80,0.00,CLR,,0.01,229.0,WeatherDisplay:10.37,2013-10-29 20:44:00,
2013-10-29 12:49:00,46.9,40.7,29.55,South,181,3.5,3.5,79,0.00,CLR,,0.01,230.0,WeatherDisplay:10.37,2013-10-29 20:49:00,
2013-10-29 12:54:00,47.4,41.2,29.55,South,181,3.0,3.0,79,0.00,CLR,,0.01,190.0,WeatherDisplay:10.37,2013-10-29 20:54:00,
2013-10-29 12:59:00,47.5,41.3,29.55,SSW,192,3.5,3.5,79,0.00,CLR,,0.01,169.0,WeatherDisplay:10.37,2013-10-29 20:59:00,
2013-10-29 13:04:00,47.5,41.3,29.55,SSW,192,1.2,1.2,79,0.00,CLR,,0.01,148.0,WeatherDisplay:10.37,2013-10-29 21:04:00,
2013-10-29 13:09:00,47.3,41.1,29.55,SSW,199,3.5,3.5,79,0.00,CLR,,0.01,118.0,WeatherDisplay:10.37,2013-10-29 21:09:00,
2013-10-29 13:14:00,47.3,40.8,29.55,SSW,200,3.5,3.5,78,0.00,CLR,,0.01,111.0,WeatherDisplay:10.37,2013-10-29 21:14:00,
2013-10-29 13:19:00,47.3,40.8,29.56,SSE,159,4.6,4.6,78,0.00,CLR,,0.01,116.0,WeatherDisplay:10.37,2013-10-29 21:19:00,
2013-10-29 13:24:00,47.1,40.9,29.56,South,184,1.2,1.2,79,0.00,CLR,,0.01,128.0,WeatherDisplay:10.37,2013-10-29 21:24:00,
2013-10-29 13:29:00,46.9,40.4,29.56,SSE,167,4.6,4.6,78,0.00,CLR,,0.01,123.0,WeatherDisplay:10.37,2013-10-29 21:29:00,
2013-10-29 13:34:00,46.8,40.3,29.56,South,190,0.0,0.0,78,0.00,CLR,,0.01,86.0,WeatherDisplay:10.37,2013-10-29 21:34:00,
2013-10-29 13:39:00,46.8,40.3,29.55,ESE,107,3.5,3.5,78,0.00,CLR,,0.01,107.0,WeatherDisplay:10.37,2013-10-29 21:39:00,
2013-10-29 13:44:00,46.8,41.0,29.55,SW,230,1.2,0.0,80,0.00,CLR,,0.01,84.0,WeatherDisplay:10.37,2013-10-29 21:44:00,
2013-10-29 13:49:00,46.7,40.5,29.55,SW,230,3.0,3.0,79,0.00,CLR,,0.01,62.0,WeatherDisplay:10.37,2013-10-29 21:49:00,
2013-10-29 13:54:00,46.6,40.8,29.55,SW,229,2.3,2.3,80,0.00,CLR,,0.01,74.0,WeatherDisplay:10.37,2013-10-29 21:54:00,
2013-10-29 13:59:00,46.5,40.7,29.55,SW,229,1.0,1.0,80,0.00,CLR,,0.01,65.0,WeatherDisplay:10.37,2013-10-29 21:59:00,
2013-10-29 14:04:00,46.3,40.5,29.55,SW,229,0.0,0.0,80,0.00,CLR,,0.01,81.0,WeatherDisplay:10.37,2013-10-29 22:04:00,
2013-10-29 14:09:00,46.1,39.9,29.54,SW,230,1.2,1.2,79,0.00,CLR,,0.01,63.0,WeatherDisplay:10.37,2013-10-29 22:09:00,
2013-10-29 14:14:00,46.1,40.3,29.54,SW,229,0.0,0.0,80,0.00,CLR,,0.01,58.0,WeatherDisplay:10.37,2013-10-29 22:14:00,
2013-10-29 14:19:00,46.1,39.9,29.54,SW,229,0.0,0.0,79,0.00,CLR,,0.01,111.0,WeatherDisplay:10.37,2013-10-29 22:19:00,
2013-10-29 14:24:00,46.1,40.3,29.53,SW,230,2.0,2.0,80,0.00,CLR,,0.01,102.0,WeatherDisplay:10.37,2013-10-29 22:24:00,
2013-10-29 14:29:00,46.2,40.4,29.53,SW,229,3.5,3.5,80,0.00,CLR,,0.01,79.0,WeatherDisplay:10.37,2013-10-29 22:29:00,
2013-10-29 14:34:00,46.4,40.6,29.53,East,98,2.3,2.3,80,0.00,CLR,,0.01,54.0,WeatherDisplay:10.37,2013-10-29 22:34:00,
2013-10-29 14:39:00,46.5,40.3,29.53,East,98,2.3,2.3,79,0.00,CLR,,0.01,47.0,WeatherDisplay:10.37,2013-10-29 22:39:00,
2013-10-29 14:44:00,46.5,40.3,29.53,East,98,0.0,0.0,79,0.00,CLR,,0.01,47.0,WeatherDisplay:10.37,2013-10-29 22:44:00,
2013-10-29 14:49:00,46.5,40.0,29.53,East,98,1.0,1.0,78,0.00,CLR,,0.01,47.0,WeatherDisplay:10.37,2013-10-29 22:49:00,
2013-10-29 14:54:00,46.5,40.3,29.53,East,98,2.3,2.3,79,0.00,CLR,,0.01,51.0,WeatherDisplay:10.37,2013-10-29 22:54:00,
2013-10-29 14:59:00,46.5,40.3,29.52,East,98,1.2,1.2,79,0.00,CLR,,0.01,70.0,WeatherDisplay:10.37,2013-10-29 22:59:00,
2013-10-29 15:04:00,46.5,40.0,29.52,East,98,3.5,3.5,78,0.00,CLR,,0.01,54.0,WeatherDisplay:10.37,2013-10-29 23:04:00,
2013-10-29 15:09:00,46.5,39.7,29.51,East,98,3.5,3.5,77,0.00,CLR,,0.01,56.0,WeatherDisplay:10.37,2013-10-29 23:09:00,
2013-10-29 15:14:00,46.6,39.8,29.51,East,98,2.3,2.3,77,0.00,CLR,,0.01,49.0,WeatherDisplay:10.37,2013-10-29 23:14:00,
2013-10-29 15:19:00,46.7,40.2,29.51,ENE,74,4.6,4.6,78,0.00,CLR,,0.01,53.0,WeatherDisplay:10.37,2013-10-29 23:19:00,
2013-10-29 15:24:00,46.7,40.2,29.51,NE,55,3.5,3.5,78,0.00,CLR,,0.01,49.0,WeatherDisplay:10.37,2013-10-29 23:24:00,
2013-10-29 15:29:00,46.7,40.2,29.51,ENE,71,3.5,3.5,78,0.00,CLR,,0.01,53.0,WeatherDisplay:10.37,2013-10-29 23:29:00,
2013-10-29 15:34:00,46.7,40.2,29.50,ENE,71,2.3,2.3,78,0.00,CLR,,0.01,63.0,WeatherDisplay:10.37,2013-10-29 23:34:00,
2013-10-29 15:39:00,46.7,40.2,29.50,East,88,5.8,5.8,78,0.00,CLR,,0.01,67.0,WeatherDisplay:10.37,2013-10-29 23:39:00,
2013-10-29 15:44:00,46.7,40.2,29.49,East,99,1.2,1.2,78,0.00,CLR,,0.01,63.0,WeatherDisplay:10.37,2013-10-29 23:44:00,
2013-10-29 15:49:00,46.8,40.3,29.49,East,88,5.0,5.0,78,0.00,CLR,,0.01,54.0,WeatherDisplay:10.37,2013-10-29 23:49:00,
2013-10-29 15:54:00,46.8,40.3,29.49,ENE,75,3.5,3.5,78,0.00,CLR,,0.01,46.0,WeatherDisplay:10.37,2013-10-29 23:54:00,
2013-10-29 15:59:00,46.7,40.2,29.49,ENE,57,2.0,2.0,78,0.00,CLR,,0.01,46.0,WeatherDisplay:10.37,2013-10-29 23:59:00,
2013-10-29 16:04:00,46.7,40.2,29.49,NE,56,2.0,2.0,78,0.00,BKN,,0.01,47.0,WeatherDisplay:10.37,2013-10-30 00:04:00,
2013-10-29 16:09:00,46.6,40.1,29.49,NE,56,2.3,2.3,78,0.00,BKN,,0.01,56.0,WeatherDisplay:10.37,2013-10-30 00:09:00,
2013-10-29 16:14:00,46.5,40.0,29.49,NNE,31,3.5,3.5,78,0.00,BKN,,0.01,81.0,WeatherDisplay:10.37,2013-10-30 00:14:00,
2013-10-29 16:19:00,46.5,40.0,29.48,NNE,26,2.3,2.3,78,0.00,BKN,,0.01,77.0,WeatherDisplay:10.37,2013-10-30 00:19:00,
2013-10-29 16:24:00,46.5,40.3,29.48,NNE,13,4.6,4.6,79,0.00,BKN,,0.01,79.0,WeatherDisplay:10.37,2013-10-30 00:24:00,
2013-10-29 16:29:00,46.6,40.4,29.48,NE,34,3.5,3.5,79,0.00,BKN,,0.01,100.0,WeatherDisplay:10.37,2013-10-30 00:29:00,
2013-10-29 16:34:00,46.8,40.6,29.48,NE,42,3.5,3.5,79,0.00,BKN,,0.01,134.0,WeatherDisplay:10.37,2013-10-30 00:34:00,
2013-10-29 16:39:00,47.0,40.8,29.47,NNW,335,3.5,3.5,79,0.00,BKN,,0.01,113.0,WeatherDisplay:10.37,2013-10-30 00:39:00,
2013-10-29 16:44:00,47.3,40.5,29.47,NE,41,1.2,1.2,77,0.00,BKN,,0.01,83.0,WeatherDisplay:10.37,2013-10-30 00:44:00,
2013-10-29 16:49:00,47.4,40.2,29.47,ENE,63,8.1,8.1,76,0.00,BKN,,0.01,60.0,WeatherDisplay:10.37,2013-10-30 00:49:00,
2013-10-29 16:54:00,47.4,40.2,29.47,ENE,57,6.9,6.9,76,0.00,BKN,,0.01,60.0,WeatherDisplay:10.37,2013-10-30 00:54:00,
2013-10-29 16:59:00,47.2,40.4,29.46,NE,35,6.9,6.9,77,0.00,BKN,,0.01,42.0,WeatherDisplay:10.37,2013-10-30 00:59:00,
2013-10-29 17:04:00,47.0,40.2,29.47,NNE,15,3.5,3.5,77,0.00,BKN,,0.01,35.0,WeatherDisplay:10.37,2013-10-30 01:04:00,
2013-10-29 17:09:00,46.8,40.3,29.47,ENE,73,3.5,3.5,78,0.00,BKN,,0.01,32.0,WeatherDisplay:10.37,2013-10-30 01:09:00,
2013-10-29 17:14:00,46.5,40.3,29.47,ENE,69,3.5,3.5,79,0.00,BKN,,0.01,35.0,WeatherDisplay:10.37,2013-10-30 01:14:00,
2013-10-29 17:19:00,46.2,40.4,29.46,NE,46,5.8,5.8,80,0.00,BKN,,0.01,33.0,WeatherDisplay:10.37,2013-10-30 01:19:00,
2013-10-29 17:24:00,46.0,40.5,29.46,East,81,6.9,6.9,81,0.00,BKN,,0.01,30.0,WeatherDisplay:10.37,2013-10-30 01:24:00,
2013-10-29 17:29:00,45.7,40.2,29.46,NE,40,3.5,3.5,81,0.00,BKN,,0.01,23.0,WeatherDisplay:10.37,2013-10-30 01:29:00,
2013-10-29 17:34:00,45.6,40.4,29.46,ENE,71,4.6,4.6,82,0.00,BKN,,0.01,19.0,WeatherDisplay:10.37,2013-10-30 01:34:00,
2013-10-29 17:39:00,45.4,40.2,29.46,NE,38,3.5,3.5,82,0.00,BKN,,0.01,18.0,WeatherDisplay:10.37,2013-10-30 01:39:00,
2013-10-29 17:44:00,45.2,40.0,29.46,NNE,12,6.0,6.0,82,0.00,BKN,,0.01,14.0,WeatherDisplay:10.37,2013-10-30 01:44:00,
2013-10-29 17:49:00,45.1,39.9,29.46,ENE,70,5.8,5.8,82,0.00,BKN,,0.01,11.0,WeatherDisplay:10.37,2013-10-30 01:49:00,
2013-10-29 17:54:00,44.9,39.7,29.46,ENE,74,3.5,3.5,82,0.00,BKN,,0.01,7.0,WeatherDisplay:10.37,2013-10-30 01:54:00,
2013-10-29 17:59:00,44.8,39.6,29.45,East,86,5.0,5.0,82,0.00,BKN,,0.01,7.0,WeatherDisplay:10.37,2013-10-30 01:59:00,
2013-10-29 18:04:00,44.7,39.9,29.45,East,90,4.6,4.6,83,0.00,OVC,,0.01,5.0,WeatherDisplay:10.37,2013-10-30 02:04:00,
2013-10-29 18:09:00,44.5,40.0,29.45,NE,44,4.6,4.6,84,0.00,OVC,,0.01,0.0,WeatherDisplay:10.37,2013-10-30 02:09:00,
2013-10-29 18:14:00,44.3,40.1,29.44,NE,42,8.1,8.1,85,0.00,OVC,,0.01,0.0,WeatherDisplay:10.37,2013-10-30 02:14:00,
2013-10-29 18:19:00,44.1,40.2,29.44,East,79,5.8,5.8,86,0.00,OVC,,0.01,0.0,WeatherDisplay:10.37,2013-10-30 02:19:00,
2013-10-29 18:24:00,43.9,40.0,29.44,East,84,5.8,5.8,86,0.00,OVC,,0.01,0.0,WeatherDisplay:10.37,2013-10-30 02:24:00,
2013-10-29 18:29:00,43.7,40.1,29.43,ENE,74,6.9,6.9,87,0.00,OVC,,0.01,0.0,WeatherDisplay:10.37,2013-10-30 02:29:00,
2013-10-29 18:34:00,43.6,40.0,29.43,NE,45,6.9,6.9,87,0.00,OVC,,0.01,0.0,WeatherDisplay:10.37,2013-10-30 02:34:00,
2013-10-29 18:39:00,43.5,40.2,29.43,NE,46,5.0,5.0,88,0.00,OVC,,0.01,0.0,WeatherDisplay:10.37,2013-10-30 02:39:00,
2013-10-29 18:44:00,43.3,40.0,29.43,NE,46,5.8,5.8,88,0.00,OVC,,0.01,0.0,WeatherDisplay:10.37,2013-10-30 02:44:00,
2013-10-29 18:49:00,43.2,39.9,29.43,ENE,67,9.2,9.2,88,0.00,OVC,,0.01,0.0,WeatherDisplay:10.37,2013-10-30 02:49:00,
2013-10-29 18:54:00,43.1,39.5,29.43,NNE,30,8.1,8.1,87,0.00,OVC,,0.01,0.0,WeatherDisplay:10.37,2013-10-30 02:54:00,
2013-10-29 18:59:00,43.1,39.5,29.43,NE,55,8.1,8.1,87,0.00,OVC,,0.01,0.0,WeatherDisplay:10.37,2013-10-30 02:59:00,
2013-10-29 19:04:00,43.0,39.4,29.43,ENE,71,4.6,4.6,87,0.00,CLR,,0.01,0.0,WeatherDisplay:10.37,2013-10-30 03:04:00,
2013-10-29 19:09:00,43.0,39.4,29.42,ENE,64,6.9,6.9,87,0.00,CLR,,0.01,0.0,WeatherDisplay:10.37,2013-10-30 03:09:00,
2013-10-29 19:14:00,42.9,39.3,29.42,ENE,67,3.5,3.5,87,0.00,CLR,,0.01,0.0,WeatherDisplay:10.37,2013-10-30 03:14:00,
2013-10-29 19:19:00,42.9,39.0,29.42,ENE,60,10.4,10.4,86,0.00,CLR,,0.01,0.0,WeatherDisplay:10.37,2013-10-30 03:19:00,
2013-10-29 19:24:00,42.9,39.0,29.42,ENE,59,7.0,7.0,86,0.00,CLR,,0.01,0.0,WeatherDisplay:10.37,2013-10-30 03:24:00,
2013-10-29 19:29:00,42.9,39.0,29.41,East,82,5.8,5.8,86,0.00,CLR,,0.01,0.0,WeatherDisplay:10.37,2013-10-30 03:29:00,
2013-10-29 19:34:00,42.9,39.0,29.41,ENE,72,8.0,8.0,86,0.00,CLR,,0.01,0.0,WeatherDisplay:10.37,2013-10-30 03:34:00,
2013-10-29 19:39:00,42.9,39.0,29.41,ENE,59,6.9,6.9,86,0.00,CLR,,0.01,0.0,WeatherDisplay:10.37,2013-10-30 03:39:00,
2013-10-29 19:44:00,42.9,39.3,29.41,ENE,67,7.0,7.0,87,0.00,CLR,,0.01,0.0,WeatherDisplay:10.37,2013-10-30 03:44:00,
2013-10-29 19:49:00,43.0,39.4,29.41,ENE,72,9.2,9.2,87,0.00,CLR,,0.01,0.0,WeatherDisplay:10.37,2013-10-30 03:49:00,
2013-10-29 19:54:00,43.0,39.4,29.41,NE,35,10.0,10.0,87,0.00,CLR,,0.01,0.0,WeatherDisplay:10.37,2013-10-30 03:54:00,
2013-10-29 19:59:00,43.0,39.4,29.40,NNE,29,10.4,10.4,87,0.00,CLR,,0.01,0.0,WeatherDisplay:10.37,2013-10-30 03:59:00,
2013-10-29 20:01:00,43.0,39.4,29.40,NE,50,6.9,6.9,87,0.00,CLR,,0.01,0.0,WeatherDisplay:10.37,2013-10-30 04:01:00,
2013-10-29 20:02:00,43.0,39.4,29.40,ENE,65,8.0,8.0,87,0.00,CLR,,0.01,0.0,WeatherDisplay:10.37,2013-10-30 04:02:00,
2013-10-29 20:07:00,42.9,39.3,29.40,NE,52,7.0,7.0,87,0.00,CLR,,0.01,0.0,WeatherDisplay:10.37,2013-10-30 04:07:00,
2013-10-29 20:12:00,42.9,39.3,29.40,NE,47,5.8,5.8,87,0.00,CLR,,0.01,0.0,WeatherDisplay:10.37,2013-10-30 04:12:00,
2013-10-29 20:17:00,42.9,39.3,29.39,NE,49,9.2,9.2,87,0.00,CLR,,0.01,0.0,WeatherDisplay:10.37,2013-10-30 04:17:00,
2013-10-29 20:22:00,42.8,39.2,29.39,NE,38,9.2,9.2,87,0.00,CLR,,0.01,0.0,WeatherDisplay:10.37,2013-10-30 04:22:00,
2013-10-29 20:27:00,42.8,39.2,29.39,ENE,57,11.5,11.5,87,0.00,CLR,,0.01,0.0,WeatherDisplay:10.37,2013-10-30 04:27:00,
2013-10-29 20:32:00,42.8,39.2,29.39,SE,134,10.4,10.4,87,0.00,CLR,,0.01,0.0,WeatherDisplay:10.37,2013-10-30 04:32:00,
2013-10-29 20:37:00,42.8,39.2,29.39,NE,48,4.0,4.0,87,0.00,CLR,,0.01,0.0,WeatherDisplay:10.37,2013-10-30 04:37:00,
2013-10-29 20:42:00,42.8,39.2,29.39,ENE,74,5.8,5.8,87,0.00,CLR,,0.01,0.0,WeatherDisplay:10.37,2013-10-30 04:42:00,
2013-10-29 20:47:00,42.8,39.2,29.38,ENE,58,8.1,8.1,87,0.00,CLR,,0.01,0.0,WeatherDisplay:10.37,2013-10-30 04:47:00,
2013-10-29 20:52:00,42.8,39.2,29.38,East,90,10.4,10.4,87,0.00,CLR,,0.01,0.0,WeatherDisplay:10.37,2013-10-30 04:52:00,
2013-10-29 20:57:00,42.8,39.2,29.38,ENE,62,9.2,9.2,87,0.00,CLR,,0.01,0.0,WeatherDisplay:10.37,2013-10-30 04:57:00,
2013-10-29 21:02:00,42.8,38.9,29.38,ENE,69,4.6,4.6,86,0.00,SCT,,0.01,0.0,WeatherDisplay:10.37,2013-10-30 05:02:00,
2013-10-29 21:07:00,42.8,38.9,29.38,East,83,5.8,5.8,86,0.00,SCT,,0.01,0.0,WeatherDisplay:10.37,2013-10-30 05:07:00,
2013-10-29 21:12:00,42.9,39.0,29.38,ENE,74,7.0,7.0,86,0.00,SCT,,0.01,0.0,WeatherDisplay:10.37,2013-10-30 05:12:00,
2013-10-29 21:17:00,42.9,39.0,29.37,NE,43,8.1,8.1,86,0.00,SCT,,0.01,0.0,WeatherDisplay:10.37,2013-10-30 05:17:00,
2013-10-29 21:22:00,42.9,39.0,29.37,East,86,9.2,9.2,86,0.00,SCT,,0.01,0.0,WeatherDisplay:10.37,2013-10-30 05:22:00,
2013-10-29 21:27:00,43.0,39.1,29.37,ENE,62,10.4,10.4,86,0.00,SCT,,0.01,0.0,WeatherDisplay:10.37,2013-10-30 05:27:00,
2013-10-29 21:32:00,43.0,38.8,29.37,ENE,58,5.0,5.3,85,0.00,SCT,,0.01,0.0,WeatherDisplay:10.37,2013-10-30 05:32:00,
2013-10-29 21:37:00,43.1,38.9,29.37,ESE,102,9.2,9.2,85,0.00,SCT,,0.01,0.0,WeatherDisplay:10.37,2013-10-30 05:37:00,
2013-10-29 21:42:00,43.1,38.9,29.37,East,92,8.1,8.1,85,0.00,SCT,,0.01,0.0,WeatherDisplay:10.37,2013-10-30 05:42:00,
2013-10-29 21:47:00,43.1,38.9,29.37,ENE,70,9.2,9.2,85,0.00,SCT,,0.01,0.0,WeatherDisplay:10.37,2013-10-30 05:47:00,
2013-10-29 21:52:00,43.0,39.1,29.37,East,79,11.5,11.5,86,0.00,SCT,,0.01,0.0,WeatherDisplay:10.37,2013-10-30 05:52:00,
2013-10-29 21:57:00,42.9,39.3,29.36,ENE,63,9.2,9.2,87,0.00,SCT,,0.01,0.0,WeatherDisplay:10.37,2013-10-30 05:57:00,
2013-10-29 22:02:00,42.7,39.1,29.36,ENE,69,12.7,12.7,87,0.00,OVC,,0.01,0.0,WeatherDisplay:10.37,2013-10-30 06:02:00,
2013-10-29 22:07:00,42.5,39.2,29.36,ENE,57,9.0,9.0,88,0.00,OVC,,0.01,0.0,WeatherDisplay:10.37,2013-10-30 06:07:00,
2013-10-29 22:12:00,42.4,39.1,29.36,ESE,103,11.5,11.5,88,0.00,OVC,,0.01,0.0,WeatherDisplay:10.37,2013-10-30 06:12:00,
2013-10-29 22:17:00,42.2,38.9,29.36,NNE,21,12.7,12.7,88,0.00,OVC,,0.01,0.0,WeatherDisplay:10.37,2013-10-30 06:17:00,
2013-10-29 22:22:00,42.1,38.8,29.35,NNE,26,15.0,15.0,88,0.00,OVC,,0.01,0.0,WeatherDisplay:10.37,2013-10-30 06:22:00,
2013-10-29 22:27:00,42.0,39.0,29.35,East,86,6.9,6.9,89,0.00,OVC,,0.01,0.0,WeatherDisplay:10.37,2013-10-30 06:27:00,
2013-10-29 22:32:00,41.8,38.8,29.35,ENE,69,11.5,11.5,89,0.00,OVC,,0.01,0.0,WeatherDisplay:10.37,2013-10-30 06:32:00,
2013-10-29 22:37:00,41.8,38.8,29.35,NE,47,9.2,9.2,89,0.00,OVC,,0.01,0.0,WeatherDisplay:10.37,2013-10-30 06:37:00,
2013-10-29 22:42:00,41.7,38.7,29.35,East,95,6.9,6.9,89,0.00,OVC,,0.01,0.0,WeatherDisplay:10.37,2013-10-30 06:42:00,
2013-10-29 22:47:00,41.6,38.9,29.35,East,85,9.2,9.2,90,0.00,OVC,,0.01,0.0,WeatherDisplay:10.37,2013-10-30 06:47:00,
2013-10-29 22:52:00,41.6,38.9,29.34,East,86,9.0,9.0,90,0.00,OVC,,0.01,0.0,WeatherDisplay:10.37,2013-10-30 06:52:00,
2013-10-29 22:57:00,41.5,38.8,29.33,NNE,22,15.0,15.0,90,0.00,OVC,,0.01,0.0,WeatherDisplay:10.37,2013-10-30 06:57:00,
2013-10-29 23:02:00,41.5,38.8,29.33,NE,41,11.5,11.5,90,0.00,-RA,,0.01,0.0,WeatherDisplay:10.37,2013-10-30 07:02:00,
2013-10-29 23:08:00,41.4,38.7,29.33,NNE,28,15.0,15.0,90,0.00,-RA,,0.01,0.0,WeatherDisplay:10.37,2013-10-30 07:08:00,
2013-10-29 23:13:00,41.4,38.7,29.32,NNE,24,9.0,9.0,90,0.00,-RA,,0.01,0.0,WeatherDisplay:10.37,2013-10-30 07:13:00,
2013-10-29 23:18:00,41.4,38.7,29.32,East,82,10.4,10.4,90,0.00,-RA,,0.01,0.0,WeatherDisplay:10.37,2013-10-30 07:18:00,
2013-10-29 23:23:00,41.5,38.8,29.32,NE,46,10.4,10.4,90,0.00,-RA,,0.01,0.0,WeatherDisplay:10.37,2013-10-30 07:23:00,
2013-10-29 23:28:00,41.5,38.8,29.32,NNE,31,10.4,10.4,90,0.00,-RA,,0.01,0.0,WeatherDisplay:10.37,2013-10-30 07:28:00,
2013-10-29 23:33:00,41.6,38.9,29.31,NE,41,10.4,10.4,90,0.00,-RA,,0.01,0.0,WeatherDisplay:10.37,2013-10-30 07:33:00,
2013-10-29 23:38:00,41.6,38.9,29.31,East,81,10.4,10.4,90,0.00,-RA,,0.01,0.0,WeatherDisplay:10.37,2013-10-30 07:38:00,
2013-10-29 23:43:00,41.7,39.0,29.31,NE,35,8.1,8.1,90,0.00,-RA,,0.01,0.0,WeatherDisplay:10.37,2013-10-30 07:43:00,
2013-10-29 23:48:00,41.8,39.1,29.31,East,84,11.0,11.0,90,0.00,-RA,,0.01,0.0,WeatherDisplay:10.37,2013-10-30 07:48:00,
2013-10-29 23:53:00,41.8,38.8,29.30,NNE,22,9.2,9.2,89,0.00,-RA,,0.01,0.0,WeatherDisplay:10.37,2013-10-30 07:53:00,
2013-10-29 23:58:00,41.9,38.9,29.31,East,89,15.0,15.0,89,0.00,-RA,,0.01,0.0,WeatherDisplay:10.37,2013-10-30 07:58:00,